sensor_id;sensor_type;location;lat;lon;timestamp;P1;durP1;ratioP1;P2;durP2;ratioP2
15331;SDS011;7766;51.534;6.722;2024-03-22T00:00:15;28.33;;;16.83;;
15331;SDS011;7766;51.534;6.722;2024-03-22T00:02:41;31.27;;;17.33;;
15331;SDS011;7766;51.534;6.722;2024-03-22T00:05:07;28.53;;;17.73;;
15331;SDS011;7766;51.534;6.722;2024-03-22T00:07:33;27.27;;;17.60;;
15331;SDS011;7766;51.534;6.722;2024-03-22T00:09:59;31.57;;;18.60;;
15331;SDS011;7766;51.534;6.722;2024-03-22T00:12:25;26.93;;;17.63;;
15331;SDS011;7766;51.534;6.722;2024-03-22T00:14:51;30.63;;;16.53;;
15331;SDS011;7766;51.534;6.722;2024-03-22T00:17:19;30.03;;;18.27;;
15331;SDS011;7766;51.534;6.722;2024-03-22T00:19:45;28.03;;;16.77;;
15331;SDS011;7766;51.534;6.722;2024-03-22T00:22:11;29.80;;;17.10;;
15331;SDS011;7766;51.534;6.722;2024-03-22T00:24:37;28.40;;;16.77;;
15331;SDS011;7766;51.534;6.722;2024-03-22T00:27:03;27.57;;;15.83;;
15331;SDS011;7766;51.534;6.722;2024-03-22T00:29:28;29.40;;;17.40;;
15331;SDS011;7766;51.534;6.722;2024-03-22T00:31:54;29.33;;;17.30;;
15331;SDS011;7766;51.534;6.722;2024-03-22T00:34:19;33.13;;;18.73;;
15331;SDS011;7766;51.534;6.722;2024-03-22T00:36:45;30.87;;;16.97;;
15331;SDS011;7766;51.534;6.722;2024-03-22T00:39:11;30.13;;;17.73;;
15331;SDS011;7766;51.534;6.722;2024-03-22T00:41:37;24.97;;;16.93;;
15331;SDS011;7766;51.534;6.722;2024-03-22T00:44:03;30.43;;;17.87;;
15331;SDS011;7766;51.534;6.722;2024-03-22T00:46:29;29.23;;;17.17;;
15331;SDS011;7766;51.534;6.722;2024-03-22T00:48:54;27.33;;;17.37;;
15331;SDS011;7766;51.534;6.722;2024-03-22T00:51:20;30.93;;;16.60;;
15331;SDS011;7766;51.534;6.722;2024-03-22T00:53:47;32.63;;;20.20;;
15331;SDS011;7766;51.534;6.722;2024-03-22T00:56:13;29.43;;;17.37;;
15331;SDS011;7766;51.534;6.722;2024-03-22T00:58:38;28.80;;;18.53;;
15331;SDS011;7766;51.534;6.722;2024-03-22T01:01:04;29.77;;;17.00;;
15331;SDS011;7766;51.534;6.722;2024-03-22T01:03:30;30.27;;;17.50;;
15331;SDS011;7766;51.534;6.722;2024-03-22T01:05:56;31.13;;;17.33;;
15331;SDS011;7766;51.534;6.722;2024-03-22T01:08:22;33.93;;;18.07;;
15331;SDS011;7766;51.534;6.722;2024-03-22T01:10:48;29.73;;;16.93;;
15331;SDS011;7766;51.534;6.722;2024-03-22T01:13:14;31.10;;;17.33;;
15331;SDS011;7766;51.534;6.722;2024-03-22T01:15:40;32.60;;;19.20;;
15331;SDS011;7766;51.534;6.722;2024-03-22T01:18:06;32.53;;;18.27;;
15331;SDS011;7766;51.534;6.722;2024-03-22T01:20:32;33.67;;;18.03;;
15331;SDS011;7766;51.534;6.722;2024-03-22T01:22:59;32.40;;;17.70;;
15331;SDS011;7766;51.534;6.722;2024-03-22T01:25:25;32.60;;;18.67;;
15331;SDS011;7766;51.534;6.722;2024-03-22T01:27:51;32.83;;;19.87;;
15331;SDS011;7766;51.534;6.722;2024-03-22T01:30:17;32.60;;;18.77;;
15331;SDS011;7766;51.534;6.722;2024-03-22T01:32:43;34.57;;;19.43;;
15331;SDS011;7766;51.534;6.722;2024-03-22T01:35:09;32.00;;;17.70;;
15331;SDS011;7766;51.534;6.722;2024-03-22T01:37:35;34.33;;;19.07;;
15331;SDS011;7766;51.534;6.722;2024-03-22T01:40:02;28.20;;;16.57;;
15331;SDS011;7766;51.534;6.722;2024-03-22T01:42:28;33.77;;;17.97;;
15331;SDS011;7766;51.534;6.722;2024-03-22T01:44:54;31.63;;;17.90;;
15331;SDS011;7766;51.534;6.722;2024-03-22T01:47:20;32.17;;;17.53;;
15331;SDS011;7766;51.534;6.722;2024-03-22T01:49:46;31.50;;;20.30;;
15331;SDS011;7766;51.534;6.722;2024-03-22T01:52:14;29.50;;;18.33;;
15331;SDS011;7766;51.534;6.722;2024-03-22T01:54:40;32.73;;;18.73;;
15331;SDS011;7766;51.534;6.722;2024-03-22T01:57:06;34.63;;;18.93;;
15331;SDS011;7766;51.534;6.722;2024-03-22T01:59:32;29.33;;;18.07;;
15331;SDS011;7766;51.534;6.722;2024-03-22T02:01:59;30.77;;;18.57;;
15331;SDS011;7766;51.534;6.722;2024-03-22T02:04:25;37.87;;;19.17;;
15331;SDS011;7766;51.534;6.722;2024-03-22T02:06:51;32.87;;;19.20;;
15331;SDS011;7766;51.534;6.722;2024-03-22T02:09:16;31.77;;;17.80;;
15331;SDS011;7766;51.534;6.722;2024-03-22T02:11:42;37.63;;;19.27;;
15331;SDS011;7766;51.534;6.722;2024-03-22T02:14:08;32.47;;;19.80;;
15331;SDS011;7766;51.534;6.722;2024-03-22T02:16:34;31.43;;;18.87;;
15331;SDS011;7766;51.534;6.722;2024-03-22T02:18:59;30.83;;;18.40;;
15331;SDS011;7766;51.534;6.722;2024-03-22T02:21:25;31.33;;;17.97;;
15331;SDS011;7766;51.534;6.722;2024-03-22T02:23:51;31.90;;;18.33;;
15331;SDS011;7766;51.534;6.722;2024-03-22T02:26:17;35.00;;;18.43;;
15331;SDS011;7766;51.534;6.722;2024-03-22T02:28:43;30.57;;;18.10;;
15331;SDS011;7766;51.534;6.722;2024-03-22T02:31:08;34.97;;;19.73;;
15331;SDS011;7766;51.534;6.722;2024-03-22T02:33:34;33.03;;;19.37;;
15331;SDS011;7766;51.534;6.722;2024-03-22T02:36:00;31.70;;;18.87;;
15331;SDS011;7766;51.534;6.722;2024-03-22T02:38:26;33.37;;;19.43;;
15331;SDS011;7766;51.534;6.722;2024-03-22T02:40:52;34.93;;;18.80;;
15331;SDS011;7766;51.534;6.722;2024-03-22T02:43:19;35.13;;;19.70;;
15331;SDS011;7766;51.534;6.722;2024-03-22T02:45:46;31.87;;;18.37;;
15331;SDS011;7766;51.534;6.722;2024-03-22T02:48:12;36.03;;;19.93;;
15331;SDS011;7766;51.534;6.722;2024-03-22T02:50:38;34.63;;;19.53;;
15331;SDS011;7766;51.534;6.722;2024-03-22T02:53:04;32.37;;;19.47;;
15331;SDS011;7766;51.534;6.722;2024-03-22T02:55:36;34.13;;;20.70;;
15331;SDS011;7766;51.534;6.722;2024-03-22T02:58:02;33.23;;;19.73;;
15331;SDS011;7766;51.534;6.722;2024-03-22T03:00:28;36.70;;;20.40;;
15331;SDS011;7766;51.534;6.722;2024-03-22T03:02:53;33.20;;;19.13;;
15331;SDS011;7766;51.534;6.722;2024-03-22T03:05:19;33.07;;;19.07;;
15331;SDS011;7766;51.534;6.722;2024-03-22T03:07:45;36.70;;;20.47;;
15331;SDS011;7766;51.534;6.722;2024-03-22T03:10:12;32.53;;;19.13;;
15331;SDS011;7766;51.534;6.722;2024-03-22T03:12:37;39.60;;;20.20;;
15331;SDS011;7766;51.534;6.722;2024-03-22T03:15:03;34.53;;;18.57;;
15331;SDS011;7766;51.534;6.722;2024-03-22T03:17:29;33.73;;;19.57;;
15331;SDS011;7766;51.534;6.722;2024-03-22T03:19:55;36.53;;;19.37;;
15331;SDS011;7766;51.534;6.722;2024-03-22T03:22:21;33.87;;;19.57;;
15331;SDS011;7766;51.534;6.722;2024-03-22T03:24:47;34.00;;;20.80;;
15331;SDS011;7766;51.534;6.722;2024-03-22T03:27:12;36.87;;;19.83;;
15331;SDS011;7766;51.534;6.722;2024-03-22T03:29:38;36.33;;;20.63;;
15331;SDS011;7766;51.534;6.722;2024-03-22T03:32:04;33.77;;;19.63;;
15331;SDS011;7766;51.534;6.722;2024-03-22T03:34:30;33.73;;;19.23;;
15331;SDS011;7766;51.534;6.722;2024-03-22T03:36:56;33.40;;;19.33;;
15331;SDS011;7766;51.534;6.722;2024-03-22T03:39:25;35.83;;;20.40;;
15331;SDS011;7766;51.534;6.722;2024-03-22T03:41:51;34.17;;;19.77;;
15331;SDS011;7766;51.534;6.722;2024-03-22T03:44:17;34.40;;;20.77;;
15331;SDS011;7766;51.534;6.722;2024-03-22T03:46:43;36.53;;;20.57;;
15331;SDS011;7766;51.534;6.722;2024-03-22T03:49:09;35.70;;;20.27;;
15331;SDS011;7766;51.534;6.722;2024-03-22T03:51:35;32.33;;;19.03;;
15331;SDS011;7766;51.534;6.722;2024-03-22T03:54:01;34.87;;;20.97;;
15331;SDS011;7766;51.534;6.722;2024-03-22T03:56:27;37.50;;;20.43;;
15331;SDS011;7766;51.534;6.722;2024-03-22T03:58:53;36.70;;;19.33;;
15331;SDS011;7766;51.534;6.722;2024-03-22T04:01:19;35.40;;;19.93;;
15331;SDS011;7766;51.534;6.722;2024-03-22T04:03:45;32.83;;;19.97;;
15331;SDS011;7766;51.534;6.722;2024-03-22T04:06:11;37.77;;;21.00;;
15331;SDS011;7766;51.534;6.722;2024-03-22T04:08:37;35.60;;;20.13;;
15331;SDS011;7766;51.534;6.722;2024-03-22T04:11:03;36.33;;;20.77;;
15331;SDS011;7766;51.534;6.722;2024-03-22T04:13:29;35.77;;;20.17;;
15331;SDS011;7766;51.534;6.722;2024-03-22T04:15:58;32.30;;;18.93;;
15331;SDS011;7766;51.534;6.722;2024-03-22T04:18:24;32.97;;;18.90;;
15331;SDS011;7766;51.534;6.722;2024-03-22T04:20:53;34.93;;;20.07;;
15331;SDS011;7766;51.534;6.722;2024-03-22T04:23:20;33.10;;;19.70;;
15331;SDS011;7766;51.534;6.722;2024-03-22T04:25:55;34.50;;;20.43;;
15331;SDS011;7766;51.534;6.722;2024-03-22T04:28:25;29.90;;;19.33;;
15331;SDS011;7766;51.534;6.722;2024-03-22T04:30:59;32.97;;;19.33;;
15331;SDS011;7766;51.534;6.722;2024-03-22T04:33:28;36.73;;;19.80;;
15331;SDS011;7766;51.534;6.722;2024-03-22T04:35:55;33.83;;;19.90;;
15331;SDS011;7766;51.534;6.722;2024-03-22T04:38:24;32.43;;;18.17;;
15331;SDS011;7766;51.534;6.722;2024-03-22T04:40:50;32.67;;;19.10;;
15331;SDS011;7766;51.534;6.722;2024-03-22T04:43:16;34.10;;;17.77;;
15331;SDS011;7766;51.534;6.722;2024-03-22T04:45:42;36.20;;;20.50;;
15331;SDS011;7766;51.534;6.722;2024-03-22T04:48:08;34.57;;;19.13;;
15331;SDS011;7766;51.534;6.722;2024-03-22T04:50:34;30.40;;;18.30;;
15331;SDS011;7766;51.534;6.722;2024-03-22T04:53:00;32.70;;;19.77;;
15331;SDS011;7766;51.534;6.722;2024-03-22T04:55:26;32.30;;;18.27;;
15331;SDS011;7766;51.534;6.722;2024-03-22T04:57:52;35.20;;;19.40;;
15331;SDS011;7766;51.534;6.722;2024-03-22T05:00:18;32.33;;;19.47;;
15331;SDS011;7766;51.534;6.722;2024-03-22T05:02:44;31.20;;;18.57;;
15331;SDS011;7766;51.534;6.722;2024-03-22T05:05:09;32.67;;;19.33;;
15331;SDS011;7766;51.534;6.722;2024-03-22T05:07:36;29.07;;;18.43;;
15331;SDS011;7766;51.534;6.722;2024-03-22T05:10:02;33.37;;;19.63;;
15331;SDS011;7766;51.534;6.722;2024-03-22T05:12:28;28.90;;;19.20;;
15331;SDS011;7766;51.534;6.722;2024-03-22T05:14:54;31.60;;;19.37;;
15331;SDS011;7766;51.534;6.722;2024-03-22T05:17:20;35.77;;;21.07;;
15331;SDS011;7766;51.534;6.722;2024-03-22T05:19:46;31.03;;;18.30;;
15331;SDS011;7766;51.534;6.722;2024-03-22T05:22:12;33.50;;;19.40;;
15331;SDS011;7766;51.534;6.722;2024-03-22T05:24:38;31.57;;;19.10;;
15331;SDS011;7766;51.534;6.722;2024-03-22T05:27:04;30.37;;;19.27;;
15331;SDS011;7766;51.534;6.722;2024-03-22T05:29:30;29.97;;;18.60;;
15331;SDS011;7766;51.534;6.722;2024-03-22T05:31:55;31.77;;;18.60;;
15331;SDS011;7766;51.534;6.722;2024-03-22T05:34:22;31.27;;;18.73;;
15331;SDS011;7766;51.534;6.722;2024-03-22T05:36:48;29.83;;;19.40;;
15331;SDS011;7766;51.534;6.722;2024-03-22T05:39:14;31.03;;;19.10;;
15331;SDS011;7766;51.534;6.722;2024-03-22T05:41:40;30.93;;;19.43;;
15331;SDS011;7766;51.534;6.722;2024-03-22T05:44:06;29.97;;;18.43;;
15331;SDS011;7766;51.534;6.722;2024-03-22T05:46:32;28.63;;;18.30;;
15331;SDS011;7766;51.534;6.722;2024-03-22T05:48:58;31.47;;;19.10;;
15331;SDS011;7766;51.534;6.722;2024-03-22T05:51:24;28.63;;;18.07;;
15331;SDS011;7766;51.534;6.722;2024-03-22T05:53:50;28.63;;;18.83;;
15331;SDS011;7766;51.534;6.722;2024-03-22T05:56:16;26.57;;;16.20;;
15331;SDS011;7766;51.534;6.722;2024-03-22T05:58:41;29.73;;;17.67;;
15331;SDS011;7766;51.534;6.722;2024-03-22T06:01:07;27.50;;;16.23;;
15331;SDS011;7766;51.534;6.722;2024-03-22T06:03:33;28.77;;;17.60;;
15331;SDS011;7766;51.534;6.722;2024-03-22T06:06:00;27.47;;;18.17;;
15331;SDS011;7766;51.534;6.722;2024-03-22T06:08:29;29.77;;;17.47;;
15331;SDS011;7766;51.534;6.722;2024-03-22T06:10:56;25.43;;;16.13;;
15331;SDS011;7766;51.534;6.722;2024-03-22T06:13:22;28.87;;;16.97;;
15331;SDS011;7766;51.534;6.722;2024-03-22T06:15:48;29.80;;;17.73;;
15331;SDS011;7766;51.534;6.722;2024-03-22T06:18:14;28.87;;;17.13;;
15331;SDS011;7766;51.534;6.722;2024-03-22T06:20:40;31.90;;;17.30;;
15331;SDS011;7766;51.534;6.722;2024-03-22T06:23:07;28.40;;;17.57;;
15331;SDS011;7766;51.534;6.722;2024-03-22T06:25:33;26.67;;;15.97;;
15331;SDS011;7766;51.534;6.722;2024-03-22T06:27:59;31.60;;;16.93;;
15331;SDS011;7766;51.534;6.722;2024-03-22T06:30:25;26.93;;;16.90;;
15331;SDS011;7766;51.534;6.722;2024-03-22T06:32:51;23.70;;;16.47;;
15331;SDS011;7766;51.534;6.722;2024-03-22T06:35:17;24.87;;;15.73;;
15331;SDS011;7766;51.534;6.722;2024-03-22T06:37:43;23.77;;;16.13;;
15331;SDS011;7766;51.534;6.722;2024-03-22T06:40:09;24.03;;;15.07;;
15331;SDS011;7766;51.534;6.722;2024-03-22T06:42:35;23.33;;;15.37;;
15331;SDS011;7766;51.534;6.722;2024-03-22T06:45:02;22.27;;;14.10;;
15331;SDS011;7766;51.534;6.722;2024-03-22T06:47:27;24.13;;;15.67;;
15331;SDS011;7766;51.534;6.722;2024-03-22T06:49:53;29.23;;;17.00;;
15331;SDS011;7766;51.534;6.722;2024-03-22T06:52:19;26.23;;;16.13;;
15331;SDS011;7766;51.534;6.722;2024-03-22T06:54:45;28.77;;;15.47;;
15331;SDS011;7766;51.534;6.722;2024-03-22T06:57:11;27.53;;;15.60;;
15331;SDS011;7766;51.534;6.722;2024-03-22T06:59:37;25.27;;;16.10;;
15331;SDS011;7766;51.534;6.722;2024-03-22T07:02:02;25.30;;;15.80;;
15331;SDS011;7766;51.534;6.722;2024-03-22T07:04:28;23.60;;;15.60;;
15331;SDS011;7766;51.534;6.722;2024-03-22T07:06:54;24.90;;;15.40;;
15331;SDS011;7766;51.534;6.722;2024-03-22T07:09:20;23.47;;;14.97;;
15331;SDS011;7766;51.534;6.722;2024-03-22T07:11:46;21.53;;;14.90;;
15331;SDS011;7766;51.534;6.722;2024-03-22T07:14:11;22.17;;;15.00;;
15331;SDS011;7766;51.534;6.722;2024-03-22T07:16:37;24.97;;;15.03;;
15331;SDS011;7766;51.534;6.722;2024-03-22T07:19:03;25.03;;;15.37;;
15331;SDS011;7766;51.534;6.722;2024-03-22T07:21:29;22.60;;;14.73;;
15331;SDS011;7766;51.534;6.722;2024-03-22T07:23:55;21.50;;;14.53;;
15331;SDS011;7766;51.534;6.722;2024-03-22T07:26:21;24.00;;;14.77;;
15331;SDS011;7766;51.534;6.722;2024-03-22T07:28:46;23.40;;;14.57;;
15331;SDS011;7766;51.534;6.722;2024-03-22T07:31:12;27.50;;;13.90;;
15331;SDS011;7766;51.534;6.722;2024-03-22T07:33:39;21.00;;;13.73;;
15331;SDS011;7766;51.534;6.722;2024-03-22T07:36:05;24.87;;;13.57;;
15331;SDS011;7766;51.534;6.722;2024-03-22T07:38:31;22.77;;;13.33;;
15331;SDS011;7766;51.534;6.722;2024-03-22T07:40:56;19.97;;;13.37;;
15331;SDS011;7766;51.534;6.722;2024-03-22T07:43:22;21.37;;;12.17;;
15331;SDS011;7766;51.534;6.722;2024-03-22T07:45:48;20.27;;;13.53;;
15331;SDS011;7766;51.534;6.722;2024-03-22T07:48:14;19.43;;;12.70;;
15331;SDS011;7766;51.534;6.722;2024-03-22T07:50:40;20.97;;;12.83;;
15331;SDS011;7766;51.534;6.722;2024-03-22T07:53:06;20.70;;;12.90;;
15331;SDS011;7766;51.534;6.722;2024-03-22T07:55:31;20.10;;;12.50;;
15331;SDS011;7766;51.534;6.722;2024-03-22T07:57:57;17.47;;;12.53;;
15331;SDS011;7766;51.534;6.722;2024-03-22T08:00:23;20.63;;;12.53;;
15331;SDS011;7766;51.534;6.722;2024-03-22T08:02:52;20.23;;;11.63;;
15331;SDS011;7766;51.534;6.722;2024-03-22T08:05:18;17.30;;;11.93;;
15331;SDS011;7766;51.534;6.722;2024-03-22T08:07:44;19.50;;;12.13;;
15331;SDS011;7766;51.534;6.722;2024-03-22T08:10:10;19.30;;;12.97;;
15331;SDS011;7766;51.534;6.722;2024-03-22T08:12:36;17.43;;;11.60;;
15331;SDS011;7766;51.534;6.722;2024-03-22T08:15:02;22.47;;;12.33;;
15331;SDS011;7766;51.534;6.722;2024-03-22T08:17:28;17.93;;;12.83;;
15331;SDS011;7766;51.534;6.722;2024-03-22T08:19:54;21.40;;;12.57;;
15331;SDS011;7766;51.534;6.722;2024-03-22T08:22:20;17.23;;;11.00;;
15331;SDS011;7766;51.534;6.722;2024-03-22T08:24:46;15.93;;;11.27;;
15331;SDS011;7766;51.534;6.722;2024-03-22T08:27:11;16.23;;;11.50;;
15331;SDS011;7766;51.534;6.722;2024-03-22T08:29:37;14.93;;;11.20;;
15331;SDS011;7766;51.534;6.722;2024-03-22T08:32:04;16.00;;;10.90;;
15331;SDS011;7766;51.534;6.722;2024-03-22T08:34:30;15.80;;;11.30;;
15331;SDS011;7766;51.534;6.722;2024-03-22T08:36:59;17.87;;;11.13;;
15331;SDS011;7766;51.534;6.722;2024-03-22T08:39:24;15.00;;;10.63;;
15331;SDS011;7766;51.534;6.722;2024-03-22T08:41:51;16.57;;;11.33;;
15331;SDS011;7766;51.534;6.722;2024-03-22T08:44:17;18.83;;;10.97;;
15331;SDS011;7766;51.534;6.722;2024-03-22T08:46:43;16.07;;;11.00;;
15331;SDS011;7766;51.534;6.722;2024-03-22T08:49:08;17.73;;;11.27;;
15331;SDS011;7766;51.534;6.722;2024-03-22T08:51:34;13.67;;;10.10;;
15331;SDS011;7766;51.534;6.722;2024-03-22T08:53:59;16.37;;;10.30;;
15331;SDS011;7766;51.534;6.722;2024-03-22T08:56:28;16.07;;;9.83;;
15331;SDS011;7766;51.534;6.722;2024-03-22T08:58:54;18.40;;;10.70;;
15331;SDS011;7766;51.534;6.722;2024-03-22T09:01:21;15.77;;;10.27;;
15331;SDS011;7766;51.534;6.722;2024-03-22T09:03:47;18.40;;;10.80;;
15331;SDS011;7766;51.534;6.722;2024-03-22T09:06:15;14.10;;;9.53;;
15331;SDS011;7766;51.534;6.722;2024-03-22T09:08:41;15.13;;;9.97;;
15331;SDS011;7766;51.534;6.722;2024-03-22T09:11:07;13.37;;;9.63;;
15331;SDS011;7766;51.534;6.722;2024-03-22T09:13:34;15.03;;;10.03;;
15331;SDS011;7766;51.534;6.722;2024-03-22T09:16:00;16.37;;;10.30;;
15331;SDS011;7766;51.534;6.722;2024-03-22T09:18:26;14.73;;;9.80;;
15331;SDS011;7766;51.534;6.722;2024-03-22T09:20:53;13.77;;;8.83;;
15331;SDS011;7766;51.534;6.722;2024-03-22T09:23:19;16.07;;;9.80;;
15331;SDS011;7766;51.534;6.722;2024-03-22T09:25:45;13.10;;;9.10;;
15331;SDS011;7766;51.534;6.722;2024-03-22T09:28:12;15.57;;;9.50;;
15331;SDS011;7766;51.534;6.722;2024-03-22T09:30:39;15.77;;;8.77;;
15331;SDS011;7766;51.534;6.722;2024-03-22T09:33:05;13.63;;;9.27;;
15331;SDS011;7766;51.534;6.722;2024-03-22T09:35:35;15.20;;;9.20;;
15331;SDS011;7766;51.534;6.722;2024-03-22T09:38:01;15.07;;;9.57;;
15331;SDS011;7766;51.534;6.722;2024-03-22T09:40:27;13.70;;;9.43;;
15331;SDS011;7766;51.534;6.722;2024-03-22T09:42:53;11.60;;;8.20;;
15331;SDS011;7766;51.534;6.722;2024-03-22T09:45:19;12.53;;;7.90;;
15331;SDS011;7766;51.534;6.722;2024-03-22T09:47:46;11.20;;;7.83;;
15331;SDS011;7766;51.534;6.722;2024-03-22T09:50:14;13.37;;;8.43;;
15331;SDS011;7766;51.534;6.722;2024-03-22T09:52:40;16.60;;;8.70;;
15331;SDS011;7766;51.534;6.722;2024-03-22T09:55:06;13.00;;;8.67;;
15331;SDS011;7766;51.534;6.722;2024-03-22T09:57:33;12.20;;;8.73;;
15331;SDS011;7766;51.534;6.722;2024-03-22T10:00:01;16.43;;;12.10;;
15331;SDS011;7766;51.534;6.722;2024-03-22T10:02:27;23.53;;;15.23;;
15331;SDS011;7766;51.534;6.722;2024-03-22T10:04:53;11.50;;;8.80;;
15331;SDS011;7766;51.534;6.722;2024-03-22T10:07:18;10.50;;;7.63;;
15331;SDS011;7766;51.534;6.722;2024-03-22T10:09:44;12.27;;;8.77;;
15331;SDS011;7766;51.534;6.722;2024-03-22T10:12:10;12.67;;;8.70;;
15331;SDS011;7766;51.534;6.722;2024-03-22T10:14:36;12.73;;;8.83;;
15331;SDS011;7766;51.534;6.722;2024-03-22T10:17:02;12.00;;;8.60;;
15331;SDS011;7766;51.534;6.722;2024-03-22T10:19:28;13.93;;;9.37;;
15331;SDS011;7766;51.534;6.722;2024-03-22T10:22:00;13.37;;;8.40;;
15331;SDS011;7766;51.534;6.722;2024-03-22T10:24:26;12.03;;;8.33;;
15331;SDS011;7766;51.534;6.722;2024-03-22T10:26:53;13.70;;;8.73;;
15331;SDS011;7766;51.534;6.722;2024-03-22T10:29:19;14.60;;;9.47;;
15331;SDS011;7766;51.534;6.722;2024-03-22T10:31:45;16.33;;;9.47;;
15331;SDS011;7766;51.534;6.722;2024-03-22T10:34:12;29.17;;;20.60;;
15331;SDS011;7766;51.534;6.722;2024-03-22T10:36:39;16.50;;;9.97;;
15331;SDS011;7766;51.534;6.722;2024-03-22T10:39:05;14.10;;;9.50;;
15331;SDS011;7766;51.534;6.722;2024-03-22T10:41:31;12.27;;;8.53;;
15331;SDS011;7766;51.534;6.722;2024-03-22T10:43:57;14.60;;;8.90;;
15331;SDS011;7766;51.534;6.722;2024-03-22T10:46:23;13.37;;;8.97;;
15331;SDS011;7766;51.534;6.722;2024-03-22T10:48:53;27.00;;;17.53;;
15331;SDS011;7766;51.534;6.722;2024-03-22T10:51:20;14.33;;;11.10;;
15331;SDS011;7766;51.534;6.722;2024-03-22T10:53:48;19.23;;;13.17;;
15331;SDS011;7766;51.534;6.722;2024-03-22T10:56:14;13.83;;;9.90;;
15331;SDS011;7766;51.534;6.722;2024-03-22T10:58:42;15.97;;;10.17;;
15331;SDS011;7766;51.534;6.722;2024-03-22T11:01:21;15.57;;;9.20;;
15331;SDS011;7766;51.534;6.722;2024-03-22T11:03:47;13.43;;;9.80;;
15331;SDS011;7766;51.534;6.722;2024-03-22T11:06:13;12.80;;;9.47;;
15331;SDS011;7766;51.534;6.722;2024-03-22T11:08:38;13.70;;;9.57;;
15331;SDS011;7766;51.534;6.722;2024-03-22T11:11:10;12.57;;;8.83;;
15331;SDS011;7766;51.534;6.722;2024-03-22T11:13:37;11.20;;;8.37;;
15331;SDS011;7766;51.534;6.722;2024-03-22T11:16:04;13.33;;;8.90;;
15331;SDS011;7766;51.534;6.722;2024-03-22T11:18:30;11.70;;;8.57;;
15331;SDS011;7766;51.534;6.722;2024-03-22T11:20:57;13.57;;;9.23;;
15331;SDS011;7766;51.534;6.722;2024-03-22T11:23:23;13.27;;;9.33;;
15331;SDS011;7766;51.534;6.722;2024-03-22T11:25:49;18.10;;;9.30;;
15331;SDS011;7766;51.534;6.722;2024-03-22T11:28:15;14.13;;;9.77;;
15331;SDS011;7766;51.534;6.722;2024-03-22T11:30:41;13.57;;;9.67;;
15331;SDS011;7766;51.534;6.722;2024-03-22T11:33:06;15.27;;;10.00;;
15331;SDS011;7766;51.534;6.722;2024-03-22T11:35:33;12.70;;;8.83;;
15331;SDS011;7766;51.534;6.722;2024-03-22T11:37:59;18.63;;;11.07;;
15331;SDS011;7766;51.534;6.722;2024-03-22T11:40:25;18.90;;;11.57;;
15331;SDS011;7766;51.534;6.722;2024-03-22T11:42:52;14.17;;;10.37;;
15331;SDS011;7766;51.534;6.722;2024-03-22T11:45:19;14.17;;;9.60;;
15331;SDS011;7766;51.534;6.722;2024-03-22T11:47:46;12.53;;;9.60;;
15331;SDS011;7766;51.534;6.722;2024-03-22T11:50:12;15.37;;;12.27;;
15331;SDS011;7766;51.534;6.722;2024-03-22T11:52:42;11.97;;;8.80;;
15331;SDS011;7766;51.534;6.722;2024-03-22T11:55:09;15.50;;;9.87;;
15331;SDS011;7766;51.534;6.722;2024-03-22T11:57:35;10.37;;;8.07;;
15331;SDS011;7766;51.534;6.722;2024-03-22T12:00:02;11.27;;;8.87;;
15331;SDS011;7766;51.534;6.722;2024-03-22T12:02:33;12.50;;;8.53;;
15331;SDS011;7766;51.534;6.722;2024-03-22T12:05:00;14.30;;;9.00;;
15331;SDS011;7766;51.534;6.722;2024-03-22T12:07:26;12.50;;;9.17;;
15331;SDS011;7766;51.534;6.722;2024-03-22T12:09:51;15.27;;;9.23;;
15331;SDS011;7766;51.534;6.722;2024-03-22T12:12:17;12.53;;;9.90;;
15331;SDS011;7766;51.534;6.722;2024-03-22T12:14:46;13.47;;;9.00;;
15331;SDS011;7766;51.534;6.722;2024-03-22T12:17:11;11.60;;;8.70;;
15331;SDS011;7766;51.534;6.722;2024-03-22T12:19:37;12.07;;;8.97;;
15331;SDS011;7766;51.534;6.722;2024-03-22T12:22:03;11.13;;;8.93;;
15331;SDS011;7766;51.534;6.722;2024-03-22T12:24:31;13.67;;;9.27;;
15331;SDS011;7766;51.534;6.722;2024-03-22T12:26:57;12.97;;;8.97;;
15331;SDS011;7766;51.534;6.722;2024-03-22T12:29:23;13.57;;;9.20;;
15331;SDS011;7766;51.534;6.722;2024-03-22T12:31:49;11.90;;;9.30;;
15331;SDS011;7766;51.534;6.722;2024-03-22T12:34:15;11.43;;;8.80;;
15331;SDS011;7766;51.534;6.722;2024-03-22T12:36:41;11.73;;;8.73;;
15331;SDS011;7766;51.534;6.722;2024-03-22T12:39:07;11.97;;;8.93;;
15331;SDS011;7766;51.534;6.722;2024-03-22T12:41:33;12.23;;;8.67;;
15331;SDS011;7766;51.534;6.722;2024-03-22T12:43:59;11.87;;;8.77;;
15331;SDS011;7766;51.534;6.722;2024-03-22T12:46:25;13.73;;;8.60;;
15331;SDS011;7766;51.534;6.722;2024-03-22T12:48:51;13.07;;;8.40;;
15331;SDS011;7766;51.534;6.722;2024-03-22T12:51:16;14.97;;;7.70;;
15331;SDS011;7766;51.534;6.722;2024-03-22T12:53:42;12.90;;;8.40;;
15331;SDS011;7766;51.534;6.722;2024-03-22T12:56:08;10.93;;;8.20;;
15331;SDS011;7766;51.534;6.722;2024-03-22T12:58:34;12.90;;;9.17;;
15331;SDS011;7766;51.534;6.722;2024-03-22T13:01:00;12.70;;;9.13;;
15331;SDS011;7766;51.534;6.722;2024-03-22T13:03:27;11.63;;;8.10;;
15331;SDS011;7766;51.534;6.722;2024-03-22T13:05:53;15.83;;;9.30;;
15331;SDS011;7766;51.534;6.722;2024-03-22T13:08:19;16.23;;;9.37;;
15331;SDS011;7766;51.534;6.722;2024-03-22T13:10:45;12.83;;;8.80;;
15331;SDS011;7766;51.534;6.722;2024-03-22T13:13:13;12.87;;;8.53;;
15331;SDS011;7766;51.534;6.722;2024-03-22T13:15:40;11.80;;;8.57;;
15331;SDS011;7766;51.534;6.722;2024-03-22T13:18:07;12.07;;;8.90;;
15331;SDS011;7766;51.534;6.722;2024-03-22T13:20:34;12.13;;;8.13;;
15331;SDS011;7766;51.534;6.722;2024-03-22T13:23:00;10.13;;;8.40;;
15331;SDS011;7766;51.534;6.722;2024-03-22T13:25:26;13.23;;;9.03;;
15331;SDS011;7766;51.534;6.722;2024-03-22T13:27:52;12.07;;;8.93;;
15331;SDS011;7766;51.534;6.722;2024-03-22T13:30:18;12.27;;;9.27;;
15331;SDS011;7766;51.534;6.722;2024-03-22T13:32:44;12.50;;;10.17;;
15331;SDS011;7766;51.534;6.722;2024-03-22T13:35:09;16.53;;;9.97;;
15331;SDS011;7766;51.534;6.722;2024-03-22T13:37:35;15.43;;;9.57;;
15331;SDS011;7766;51.534;6.722;2024-03-22T13:40:01;14.93;;;10.20;;
15331;SDS011;7766;51.534;6.722;2024-03-22T13:42:27;14.97;;;10.03;;
15331;SDS011;7766;51.534;6.722;2024-03-22T13:44:53;14.77;;;10.47;;
15331;SDS011;7766;51.534;6.722;2024-03-22T13:47:19;15.53;;;10.00;;
15331;SDS011;7766;51.534;6.722;2024-03-22T13:49:45;13.80;;;10.83;;
15331;SDS011;7766;51.534;6.722;2024-03-22T13:52:11;13.10;;;10.43;;
15331;SDS011;7766;51.534;6.722;2024-03-22T13:54:37;13.17;;;10.83;;
15331;SDS011;7766;51.534;6.722;2024-03-22T13:57:03;16.13;;;10.40;;
15331;SDS011;7766;51.534;6.722;2024-03-22T13:59:29;36.80;;;25.30;;
15331;SDS011;7766;51.534;6.722;2024-03-22T14:01:54;18.73;;;13.63;;
15331;SDS011;7766;51.534;6.722;2024-03-22T14:04:21;16.07;;;12.47;;
15331;SDS011;7766;51.534;6.722;2024-03-22T14:06:47;19.20;;;13.20;;
15331;SDS011;7766;51.534;6.722;2024-03-22T14:09:13;16.63;;;12.40;;
15331;SDS011;7766;51.534;6.722;2024-03-22T14:11:40;17.93;;;12.83;;
15331;SDS011;7766;51.534;6.722;2024-03-22T14:14:08;20.20;;;13.50;;
15331;SDS011;7766;51.534;6.722;2024-03-22T14:16:40;19.17;;;14.50;;
15331;SDS011;7766;51.534;6.722;2024-03-22T14:19:06;27.70;;;16.37;;
15331;SDS011;7766;51.534;6.722;2024-03-22T14:21:33;19.60;;;14.50;;
15331;SDS011;7766;51.534;6.722;2024-03-22T14:23:59;22.20;;;15.17;;
15331;SDS011;7766;51.534;6.722;2024-03-22T14:26:25;21.33;;;16.57;;
15331;SDS011;7766;51.534;6.722;2024-03-22T14:28:50;24.63;;;15.57;;
15331;SDS011;7766;51.534;6.722;2024-03-22T14:31:17;21.20;;;16.53;;